This is the latest recevied weather packets stored in our database for station/object W7TRD. If no packets are shown the sender has not sent any weather packets the latest 10 day(s).
| Time | Temp. | Humidity | Pressure | Rain* | Wind** | Luminosity | Snow |
|---|---|---|---|---|---|---|---|
| 1777930679 | 22.22° C | 57% | 1012.8 hPa | 0 mm | - | 652 W/m² | - |
| 1777930375 | 22.22° C | 59% | 1012.9 hPa | 0 mm | - | 673 W/m² | - |
| 1777930072 | 22.78° C | 57% | 1012.8 hPa | 0 mm | - | 692 W/m² | - |
| 1777929768 | 21.67° C | 60% | 1012.9 hPa | 0 mm | - | 699 W/m² | - |
| 1777929466 | 21.67° C | 60% | 1013 hPa | 0 mm | - | 708 W/m² | - |
| 1777929162 | 21.67° C | 59% | 1013.2 hPa | 0 mm | - | 706 W/m² | - |
| 1777928860 | 21.11° C | 61% | 1013.2 hPa | 0 mm | - | 710 W/m² | - |
| 1777928557 | 21.11° C | 62% | 1013.5 hPa | 0 mm | - | 707 W/m² | - |
| 1777928253 | 21.67° C | 60% | 1013.3 hPa | 0 mm | - | 707 W/m² | - |
| 1777927951 | 21.67° C | 59% | 1013.4 hPa | 0 mm | - | 661 W/m² | - |
| 1777927649 | 20.56° C | 60% | 1013.5 hPa | 0 mm | - | 721 W/m² | - |
| 1777927347 | 21.11° C | 62% | 1013.6 hPa | 0 mm | - | 727 W/m² | - |
| 1777927047 | 20.56° C | 63% | 1013.6 hPa | 0 mm | - | 703 W/m² | - |
| 1777926744 | 20.56° C | 62% | 1013.7 hPa | 0 mm | - | 705 W/m² | - |
| 1777926443 | 20° C | 64% | 1013.9 hPa | 0 mm | - | 723 W/m² | - |
| 1777926141 | 20° C | 66% | 1013.9 hPa | 0 mm | - | 731 W/m² | - |
| 1777925838 | 20° C | 65% | 1013.7 hPa | 0 mm | - | 729 W/m² | - |
| 1777925535 | 20° C | 64% | 1013.8 hPa | 0 mm | - | 730 W/m² | - |
| 1777925233 | 19.44° C | 65% | 1014.1 hPa | 0 mm | - | 739 W/m² | - |
| 1777924928 | 19.44° C | 65% | 1014 hPa | 0 mm | - | 745 W/m² | - |
| 1777924625 | 19.44° C | 66% | 1014.1 hPa | 0 mm | - | 750 W/m² | - |
| 1777924321 | 20° C | 65% | 1014.1 hPa | 0 mm | - | 746 W/m² | - |
| 1777924018 | 19.44° C | 65% | 1014.2 hPa | 0 mm | - | 746 W/m² | - |
| 1777923714 | 18.89° C | 66% | 1014.3 hPa | 0 mm | - | 748 W/m² | - |
| 1777923411 | 18.89° C | 66% | 1014.1 hPa | 0 mm | - | 743 W/m² | - |
* Rain latest hour (hover to see other rain measurements)
** Current wind speed in m/s (hover to see current wind gust speed)